Airport View

Enter AWOS ICAO identifier for current METAR.

ex. KFNL

KMWC 080805Z AUTO 10004KT 5SM BR SCT006 SCT009 08/06 A2972 RMK AO2

8 Apr 2020 08:08

Phone: 414-461-2954

Other Area AWOS: KUES - KMKE - KETB - KRAC

TAF AMD KUES 080740Z 0808/0906 00000KT 1/4SM FG BKN005 FM081100 00000KT 1/2SM FG BKN003 FM081400 21004KT P6SM SCT003 SCT120 FM082000 25011G20KT P6SM VCSH BKN070 FM090200 31012KT P6SM SCT100